Time;durP1;ratioP1;P1;durP2;ratioP2;P2;SDS_P1;SDS_P2;PMS_P1;PMS_P2;Temp;Humidity;BMP_temperature;BMP_pressure;BME280_temperature;BME280_humidity;BME280_pressure;Samples;Min_cycle;Max_cycle;Signal;HPM_P1;HPM_P2
2022/05/10 00:01:40;;;;;;;;;;;;;;;;;;5050732;28;19915;-78
2022/05/10 00:04:26;;;;;;;;;;;;;;;;;;5064940;28;20277;-78
2022/05/10 00:07:13;;;;;;;;;;;;;;;;;;5060899;28;19914;-78
2022/05/10 00:09:59;;;;;;;;;;;;;;;;;;5044567;28;19908;-77
2022/05/10 00:12:46;;;;;;;;;;;;;;;;;;5032166;28;19913;-78
2022/05/10 00:15:32;;;;;;;;;;;;;;;;;;5034618;28;19927;-78
2022/05/10 00:18:19;;;;;;;;;;;;;;;;;;5035102;28;20272;-78
2022/05/10 00:21:05;;;;;;;;;;;;;;;;;;5035746;28;19920;-78
2022/05/10 00:23:52;;;;;;;;;;;;;;;;;;5040538;28;19909;-77
2022/05/10 00:26:38;;;;;;;;;;;;;;;;;;5040600;28;19913;-77
2022/05/10 00:29:25;;;;;;;;;;;;;;;;;;5043488;28;19944;-77
2022/05/10 00:32:11;;;;;;;;;;;;;;;;;;5046408;28;19909;-78
2022/05/10 00:34:57;;;;;;;;;;;;;;;;;;5041193;28;20494;-77
2022/05/10 00:37:44;;;;;;;;;;;;;;;;;;5040689;28;19915;-78
2022/05/10 00:40:31;;;;;;;;;;;;;;;;;;5044344;28;19916;-78
2022/05/10 00:43:17;;;;;;;;;;;;;;;;;;5048620;28;19916;-78
2022/05/10 00:46:04;;;;;;;;;;;;;;;;;;5047695;28;19909;-78
2022/05/10 00:48:50;;;;;;;;;;;;;;;;;;5034112;28;19909;-78
2022/05/10 00:51:37;;;;;;;;;;;;;;;;;;5047298;28;19920;-78
2022/05/10 00:54:23;;;;;;;;;;;;;;;;;;5034782;28;20425;-78
2022/05/10 00:57:10;;;;;;;;;;;;;;;;;;5033914;28;19916;-78
2022/05/10 00:59:56;;;;;;;;;;;;;;;;;;5042050;28;19909;-77
2022/05/10 01:02:43;;;;;;;;;;;;;;;;;;5040323;28;19920;-78
2022/05/10 01:05:30;;;;;;;;;;;;;;;;;;5063280;28;20296;-78
2022/05/10 01:08:16;;;;;;;;;;;;;;;;;;5029459;28;19913;-78
2022/05/10 01:11:03;;;;;;;;;;;;;;;;;;5044650;28;20361;-77
2022/05/10 01:13:49;;;;;;;;;;;;;;;;;;5051871;28;19923;-77
2022/05/10 01:16:36;;;;;;;;;;;;;;;;;;5030951;28;19943;-78
2022/05/10 01:19:22;;;;;;;;;;;;;;;;;;5036997;28;20360;-77
2022/05/10 01:22:09;;;;;;;;;;;;;;;;;;5044783;28;19916;-77
2022/05/10 01:24:55;;;;;;;;;;;;;;;;;;5048523;28;20368;-77
2022/05/10 01:27:42;;;;;;;;;;;;;;;;;;5050194;28;19913;-77
2022/05/10 01:30:28;;;;;;;;;;;;;;;;;;5050700;28;19913;-78
2022/05/10 01:33:30;;;;;;;;;;;;;;;;;;5052319;28;19913;-78
2022/05/10 01:36:16;;;;;;;;;;;;;;;;;;5047358;28;20149;-77
2022/05/10 01:39:03;;;;;;;;;;;;;;;;;;5052737;28;19912;-77
2022/05/10 01:41:50;;;;;;;;;;;;;;;;;;5044080;28;20280;-77
2022/05/10 01:44:36;;;;;;;;;;;;;;;;;;5042805;28;19913;-77
2022/05/10 01:47:22;;;;;;;;;;;;;;;;;;5046316;28;19912;-78
2022/05/10 01:50:09;;;;;;;;;;;;;;;;;;5044840;28;20391;-78
2022/05/10 01:52:55;;;;;;;;;;;;;;;;;;5040569;28;19913;-78
2022/05/10 01:55:42;;;;;;;;;;;;;;;;;;5049494;28;19923;-78
2022/05/10 01:58:28;;;;;;;;;;;;;;;;;;5062869;28;20420;-77
2022/05/10 02:01:15;;;;;;;;;;;;;;;;;;5035020;28;19919;-77
2022/05/10 02:04:01;;;;;;;;;;;;;;;;;;5035190;28;19913;-78
2022/05/10 02:06:48;;;;;;;;;;;;;;;;;;5048523;28;19917;-77
2022/05/10 02:09:34;;;;;;;;;;;;;;;;;;5048396;28;20335;-77
2022/05/10 02:12:21;;;;;;;;;;;;;;;;;;5039596;28;19916;-77
2022/05/10 02:15:08;;;;;;;;;;;;;;;;;;5058982;28;19920;-77
2022/05/10 02:17:54;;;;;;;;;;;;;;;;;;5030742;28;19928;-77
2022/05/10 02:20:41;;;;;;;;;;;;;;;;;;5049994;28;19916;-77
2022/05/10 02:23:27;;;;;;;;;;;;;;;;;;5047587;28;20361;-77
2022/05/10 02:26:14;;;;;;;;;;;;;;;;;;5049686;28;19916;-77
2022/05/10 02:29:00;;;;;;;;;;;;;;;;;;5048088;28;20276;-77
2022/05/10 02:34:52;;;;;;;;;;;;;;;;;;5043918;28;19919;-77
2022/05/10 02:37:38;;;;;;;;;;;;;;;;;;5048678;28;19981;-76
2022/05/10 02:40:25;;;;;;;;;;;;;;;;;;5050989;28;19923;-76
2022/05/10 02:43:11;;;;;;;;;;;;;;;;;;5050856;28;19909;-77
2022/05/10 02:45:58;;;;;;;;;;;;;;;;;;5049391;28;19989;-76
2022/05/10 02:48:44;;;;;;;;;;;;;;;;;;5042434;28;19913;-76
2022/05/10 02:51:31;;;;;;;;;;;;;;;;;;5031413;28;20257;-77
2022/05/10 02:54:17;;;;;;;;;;;;;;;;;;5064468;28;19913;-77
2022/05/10 02:57:04;;;;;;;;;;;;;;;;;;5059304;28;19921;-77
2022/05/10 02:59:50;;;;;;;;;;;;;;;;;;5051540;28;20406;-77
2022/05/10 03:02:37;;;;;;;;;;;;;;;;;;5049185;28;19909;-77
2022/05/10 03:05:23;;;;;;;;;;;;;;;;;;5040418;28;20444;-77
2022/05/10 03:08:10;;;;;;;;;;;;;;;;;;5052527;28;20357;-76
2022/05/10 03:10:56;;;;;;;;;;;;;;;;;;5050078;28;19913;-77
2022/05/10 03:13:43;;;;;;;;;;;;;;;;;;5037283;28;19919;-77
2022/05/10 03:16:29;;;;;;;;;;;;;;;;;;5050202;28;19928;-77
2022/05/10 03:19:19;;;;;;;;;;;;;;;;;;5037796;28;19919;-77
2022/05/10 03:22:05;;;;;;;;;;;;;;;;;;5047320;28;19912;-77
2022/05/10 03:24:52;;;;;;;;;;;;;;;;;;5046657;28;19913;-77
2022/05/10 03:27:39;;;;;;;;;;;;;;;;;;5041407;28;20264;-77
2022/05/10 03:30:26;;;;;;;;;;;;;;;;;;5045463;28;19913;-77
2022/05/10 03:33:12;;;;;;;;;;;;;;;;;;5065474;28;19913;-76
2022/05/10 03:35:59;;;;;;;;;;;;;;;;;;5050462;28;19928;-77
2022/05/10 03:38:45;;;;;;;;;;;;;;;;;;5049239;28;19916;-76
2022/05/10 03:41:31;;;;;;;;;;;;;;;;;;5045482;28;19909;-77
2022/05/10 03:44:18;;;;;;;;;;;;;;;;;;5050292;28;20012;-77
2022/05/10 03:47:04;;;;;;;;;;;;;;;;;;5051973;28;19909;-77
2022/05/10 03:49:51;;;;;;;;;;;;;;;;;;5050542;28;19916;-77
2022/05/10 03:52:38;;;;;;;;;;;;;;;;;;5048715;28;19919;-78
2022/05/10 03:55:24;;;;;;;;;;;;;;;;;;5056082;28;19928;-77
2022/05/10 03:58:13;;;;;;;;;;;;;;;;;;5034798;28;19909;-76
2022/05/10 04:00:59;;;;;;;;;;;;;;;;;;5045984;28;19996;-77
2022/05/10 04:03:45;;;;;;;;;;;;;;;;;;5039984;28;20525;-77
2022/05/10 04:06:32;;;;;;;;;;;;;;;;;;5050160;28;20440;-77
2022/05/10 04:09:18;;;;;;;;;;;;;;;;;;5051787;28;19913;-77
2022/05/10 04:12:05;;;;;;;;;;;;;;;;;;5050960;28;19913;-77
2022/05/10 04:14:51;;;;;;;;;;;;;;;;;;5040311;28;19910;-77
2022/05/10 04:17:38;;;;;;;;;;;;;;;;;;5032923;28;20294;-77
2022/05/10 04:20:24;;;;;;;;;;;;;;;;;;5045395;28;19917;-77
2022/05/10 04:23:11;;;;;;;;;;;;;;;;;;5044660;28;20288;-76
2022/05/10 04:25:57;;;;;;;;;;;;;;;;;;5038039;28;19912;-78
2022/05/10 04:28:44;;;;;;;;;;;;;;;;;;5037115;28;20269;-77
2022/05/10 04:31:30;;;;;;;;;;;;;;;;;;5044674;28;19916;-78
2022/05/10 04:34:16;;;;;;;;;;;;;;;;;;5037524;28;19939;-78
2022/05/10 04:37:03;;;;;;;;;;;;;;;;;;5040707;28;19927;-77
2022/05/10 04:43:08;;;;;;;;;;;;;;;;;;5027728;28;19924;-77
2022/05/10 04:45:58;;;;;;;;;;;;;;;;;;5040734;28;19917;-77
2022/05/10 04:48:44;;;;;;;;;;;;;;;;;;5045349;28;19920;-77
2022/05/10 04:51:38;;;;;;;;;;;;;;;;;;5038520;28;19940;-77
2022/05/10 04:54:27;;;;;;;;;;;;;;;;;;5047090;28;19909;-77
2022/05/10 04:57:13;;;;;;;;;;;;;;;;;;5036939;28;19917;-77
2022/05/10 05:00:00;;;;;;;;;;;;;;;;;;5062923;28;19915;-78
2022/05/10 05:02:46;;;;;;;;;;;;;;;;;;5047216;28;19921;-77
2022/05/10 05:05:33;;;;;;;;;;;;;;;;;;5058414;28;19966;-78
2022/05/10 05:08:19;;;;;;;;;;;;;;;;;;5042848;28;19947;-77
2022/05/10 05:11:06;;;;;;;;;;;;;;;;;;5050674;28;19923;-77
2022/05/10 05:13:52;;;;;;;;;;;;;;;;;;5063687;28;19916;-77
2022/05/10 05:16:39;;;;;;;;;;;;;;;;;;5045590;28;19916;-77
2022/05/10 05:19:25;;;;;;;;;;;;;;;;;;5050163;28;19920;-78
2022/05/10 05:22:13;;;;;;;;;;;;;;;;;;5060573;28;19909;-78
2022/05/10 05:24:59;;;;;;;;;;;;;;;;;;5042749;28;20297;-78
2022/05/10 05:27:45;;;;;;;;;;;;;;;;;;5043297;28;19913;-77
2022/05/10 05:30:32;;;;;;;;;;;;;;;;;;5060626;28;20405;-78
2022/05/10 05:33:18;;;;;;;;;;;;;;;;;;5059896;28;19919;-77
2022/05/10 05:36:05;;;;;;;;;;;;;;;;;;5046532;28;20381;-77
2022/05/10 05:38:51;;;;;;;;;;;;;;;;;;5042871;28;19909;-79
2022/05/10 05:41:38;;;;;;;;;;;;;;;;;;5037936;28;19912;-77
2022/05/10 05:44:24;;;;;;;;;;;;;;;;;;5050413;28;19919;-77
2022/05/10 05:47:11;;;;;;;;;;;;;;;;;;5053211;28;19909;-77
2022/05/10 05:49:57;;;;;;;;;;;;;;;;;;5041897;28;19935;-77
2022/05/10 05:52:44;;;;;;;;;;;;;;;;;;5054363;28;19909;-78
2022/05/10 05:55:30;;;;;;;;;;;;;;;;;;5047195;28;19924;-77
2022/05/10 05:58:17;;;;;;;;;;;;;;;;;;5049919;28;19909;-78
2022/05/10 06:01:03;;;;;;;;;;;;;;;;;;5056658;28;19912;-76
2022/05/10 06:03:51;;;;;;;;;;;;;;;;;;5043828;28;20490;-78
2022/05/10 06:06:37;;;;;;;;;;;;;;;;;;5043092;28;19917;-77
2022/05/10 06:09:24;;;;;;;;;;;;;;;;;;5044682;28;19920;-77
2022/05/10 06:12:10;;;;;;;;;;;;;;;;;;5036086;28;19913;-77
2022/05/10 06:14:57;;;;;;;;;;;;;;;;;;5046927;28;19908;-77
2022/05/10 06:17:45;;;;;;;;;;;;;;;;;;5038268;28;19924;-76
2022/05/10 06:20:32;;;;;;;;;;;;;;;;;;5044379;28;19913;-77
2022/05/10 06:23:19;;;;;;;;;;;;;;;;;;5035521;28;19909;-76
2022/05/10 06:26:05;;;;;;;;;;;;;;;;;;5051918;28;19912;-76
2022/05/10 06:28:52;;;;;;;;;;;;;;;;;;5042410;28;19909;-78
2022/05/10 06:31:39;;;;;;;;;;;;;;;;;;5042981;28;20008;-76
2022/05/10 06:34:25;;;;;;;;;;;;;;;;;;5042422;28;19925;-77
2022/05/10 06:38:16;;;;;;;;;;;;;;;;;;5032934;28;19921;-77
2022/05/10 06:40:21;;;;;;;;;;;;;;;;;;5024647;28;19921;-78
2022/05/10 06:43:08;;;;;;;;;;;;;;;;;;5030403;28;20336;-78
2022/05/10 06:45:57;;;;;;;;;;;;;;;;;;5020956;28;19917;-79
2022/05/10 06:48:45;;;;;;;;;;;;;;;;;;5030272;28;20321;-78
2022/05/10 06:51:32;;;;;;;;;;;;;;;;;;5026394;28;19909;-77
2022/05/10 06:54:18;;;;;;;;;;;;;;;;;;5030218;28;19919;-78
2022/05/10 06:57:05;;;;;;;;;;;;;;;;;;5029908;28;19948;-78
2022/05/10 06:59:51;;;;;;;;;;;;;;;;;;5033467;28;19910;-77
2022/05/10 07:02:38;;;;;;;;;;;;;;;;;;5026331;28;19909;-77
2022/05/10 07:05:24;;;;;;;;;;;;;;;;;;5038068;28;19913;-77
2022/05/10 07:08:11;;;;;;;;;;;;;;;;;;5027387;28;19936;-77
2022/05/10 07:10:57;;;;;;;;;;;;;;;;;;5034476;28;19909;-76
2022/05/10 07:13:43;;;;;;;;;;;;;;;;;;5034829;28;19912;-77
2022/05/10 07:16:30;;;;;;;;;;;;;;;;;;5028671;28;19921;-77
2022/05/10 07:19:17;;;;;;;;;;;;;;;;;;5029060;28;19913;-77
2022/05/10 07:22:03;;;;;;;;;;;;;;;;;;5035723;28;19924;-76
2022/05/10 07:24:50;;;;;;;;;;;;;;;;;;5035769;28;19913;-77
2022/05/10 07:27:36;;;;;;;;;;;;;;;;;;5008262;28;19921;-77
2022/05/10 07:30:23;;;;;;;;;;;;;;;;;;5039644;28;20389;-79
2022/05/10 07:33:09;;;;;;;;;;;;;;;;;;5040583;28;19913;-78
2022/05/10 07:39:04;;;;;;;;;;;;;;;;;;5024663;28;19916;-79
2022/05/10 07:41:53;;;;;;;;;;;;;;;;;;5026063;28;19909;-78
2022/05/10 07:44:40;;;;;;;;;;;;;;;;;;5020770;28;19909;-77
2022/05/10 07:47:26;;;;;;;;;;;;;;;;;;5032903;28;19913;-78
2022/05/10 07:50:13;;;;;;;;;;;;;;;;;;5035857;28;20270;-78
2022/05/10 07:53:06;;;;;;;;;;;;;;;;;;5022726;28;19913;-78
2022/05/10 07:55:52;;;;;;;;;;;;;;;;;;5029165;28;19925;-77
2022/05/10 07:58:39;;;;;;;;;;;;;;;;;;5029245;28;19913;-77
2022/05/10 08:01:25;;;;;;;;;;;;;;;;;;5024137;28;19920;-77
2022/05/10 08:04:11;;;;;;;;;;;;;;;;;;5042890;28;19909;-77
2022/05/10 08:06:58;;;;;;;;;;;;;;;;;;5025151;28;19913;-76
2022/05/10 08:09:44;;;;;;;;;;;;;;;;;;5031445;28;19913;-76
2022/05/10 08:12:31;;;;;;;;;;;;;;;;;;5024928;28;20012;-74
2022/05/10 08:15:20;;;;;;;;;;;;;;;;;;5033569;28;20392;-75
2022/05/10 08:18:07;;;;;;;;;;;;;;;;;;5041528;28;19916;-76
2022/05/10 08:20:53;;;;;;;;;;;;;;;;;;5017796;28;20365;-76
2022/05/10 08:23:40;;;;;;;;;;;;;;;;;;5026797;28;19913;-77
2022/05/10 08:26:26;;;;;;;;;;;;;;;;;;5023196;28;19919;-75
2022/05/10 08:29:13;;;;;;;;;;;;;;;;;;5032889;28;19916;-76
2022/05/10 08:31:59;;;;;;;;;;;;;;;;;;5028631;28;19919;-76
2022/05/10 08:34:46;;;;;;;;;;;;;;;;;;5025872;28;20387;-76
2022/05/10 08:37:32;;;;;;;;;;;;;;;;;;5050702;28;20025;-76
2022/05/10 08:40:19;;;;;;;;;;;;;;;;;;5050327;28;20015;-76
2022/05/10 08:43:05;;;;;;;;;;;;;;;;;;5062038;28;19913;-76
2022/05/10 08:45:52;;;;;;;;;;;;;;;;;;5038224;28;19916;-76
2022/05/10 08:48:38;;;;;;;;;;;;;;;;;;5035622;28;19917;-75
2022/05/10 08:51:25;;;;;;;;;;;;;;;;;;5043216;28;19924;-76
2022/05/10 08:54:11;;;;;;;;;;;;;;;;;;5041278;28;19916;-75
2022/05/10 08:56:58;;;;;;;;;;;;;;;;;;5046963;28;19925;-75
2022/05/10 08:59:44;;;;;;;;;;;;;;;;;;5043423;28;19909;-76
2022/05/10 09:02:31;;;;;;;;;;;;;;;;;;5035718;28;19916;-77
2022/05/10 09:05:17;;;;;;;;;;;;;;;;;;5044440;28;19916;-77
2022/05/10 09:08:06;;;;;;;;;;;;;;;;;;5049846;28;19916;-77
2022/05/10 09:10:53;;;;;;;;;;;;;;;;;;5045826;28;20207;-76
2022/05/10 09:13:39;;;;;;;;;;;;;;;;;;5049130;28;19915;-77
2022/05/10 09:16:26;;;;;;;;;;;;;;;;;;5054202;28;19947;-76
2022/05/10 09:19:12;;;;;;;;;;;;;;;;;;5045058;28;19935;-77
2022/05/10 09:21:59;;;;;;;;;;;;;;;;;;5039440;28;19913;-76
2022/05/10 09:24:45;;;;;;;;;;;;;;;;;;5040746;28;19919;-76
2022/05/10 09:27:32;;;;;;;;;;;;;;;;;;5048580;28;19910;-76
2022/05/10 09:30:20;;;;;;;;;;;;;;;;;;5035447;28;19913;-75
2022/05/10 09:36:19;;;;;;;;;;;;;;;;;;5037535;28;19925;-75
2022/05/10 09:39:05;;;;;;;;;;;;;;;;;;5036531;28;19920;-77
2022/05/10 09:41:52;;;;;;;;;;;;;;;;;;5046256;28;20405;-76
2022/05/10 09:44:38;;;;;;;;;;;;;;;;;;5053522;28;20020;-76
2022/05/10 09:47:25;;;;;;;;;;;;;;;;;;5039157;28;19924;-76
2022/05/10 09:50:11;;;;;;;;;;;;;;;;;;5040487;28;19913;-76
2022/05/10 09:52:58;;;;;;;;;;;;;;;;;;5043241;28;19920;-77
2022/05/10 09:55:44;;;;;;;;;;;;;;;;;;5049670;28;19917;-77
2022/05/10 09:58:31;;;;;;;;;;;;;;;;;;5032960;28;19917;-77
2022/05/10 10:01:18;;;;;;;;;;;;;;;;;;5047125;28;19916;-77
2022/05/10 10:04:04;;;;;;;;;;;;;;;;;;5040203;28;19916;-76
2022/05/10 10:06:51;;;;;;;;;;;;;;;;;;5042663;28;20592;-75
2022/05/10 10:09:37;;;;;;;;;;;;;;;;;;5049940;28;19916;-76
2022/05/10 10:12:24;;;;;;;;;;;;;;;;;;5050288;28;19920;-76
2022/05/10 10:15:10;;;;;;;;;;;;;;;;;;5050792;28;19920;-76
2022/05/10 10:17:57;;;;;;;;;;;;;;;;;;5051015;28;19931;-76
2022/05/10 10:20:43;;;;;;;;;;;;;;;;;;5034923;28;19920;-76
2022/05/10 10:23:29;;;;;;;;;;;;;;;;;;5036258;28;20381;-77
2022/05/10 10:26:19;;;;;;;;;;;;;;;;;;5035069;28;19951;-76
2022/05/10 10:29:05;;;;;;;;;;;;;;;;;;5043565;28;19912;-76
2022/05/10 10:31:52;;;;;;;;;;;;;;;;;;5034562;28;19920;-77
2022/05/10 10:34:38;;;;;;;;;;;;;;;;;;5041972;28;19919;-75
2022/05/10 10:37:25;;;;;;;;;;;;;;;;;;5043480;28;19928;-74
2022/05/10 10:40:11;;;;;;;;;;;;;;;;;;5043148;28;19909;-74
2022/05/10 10:42:58;;;;;;;;;;;;;;;;;;5046927;28;19920;-76
2022/05/10 10:45:44;;;;;;;;;;;;;;;;;;5041473;28;20411;-74
2022/05/10 10:48:31;;;;;;;;;;;;;;;;;;5031861;28;19913;-75
2022/05/10 10:51:17;;;;;;;;;;;;;;;;;;5048539;28;19923;-76
2022/05/10 10:54:04;;;;;;;;;;;;;;;;;;5045523;28;19909;-75
2022/05/10 10:56:50;;;;;;;;;;;;;;;;;;5046047;28;19925;-76
2022/05/10 10:59:37;;;;;;;;;;;;;;;;;;5049621;28;19908;-75
2022/05/10 11:02:23;;;;;;;;;;;;;;;;;;5053134;28;20372;-76
2022/05/10 11:05:13;;;;;;;;;;;;;;;;;;5028338;28;19954;-75
2022/05/10 11:07:59;;;;;;;;;;;;;;;;;;5039488;28;19928;-76
2022/05/10 11:10:46;;;;;;;;;;;;;;;;;;5028543;28;20300;-80
2022/05/10 11:13:32;;;;;;;;;;;;;;;;;;5048404;28;19984;-75
2022/05/10 11:16:20;;;;;;;;;;;;;;;;;;5036120;28;19931;-75
2022/05/10 11:19:06;;;;;;;;;;;;;;;;;;5042340;28;19935;-76
2022/05/10 11:21:56;;;;;;;;;;;;;;;;;;5030034;28;19920;-76
2022/05/10 11:24:42;;;;;;;;;;;;;;;;;;5040125;28;19919;-76
2022/05/10 11:27:29;;;;;;;;;;;;;;;;;;5038607;28;20447;-76
2022/05/10 11:30:15;;;;;;;;;;;;;;;;;;5037978;28;19921;-75
2022/05/10 11:33:02;;;;;;;;;;;;;;;;;;5032080;28;19924;-76
2022/05/10 11:35:48;;;;;;;;;;;;;;;;;;5034620;28;19921;-76
2022/05/10 11:38:35;;;;;;;;;;;;;;;;;;5042486;28;19917;-78
2022/05/10 11:41:21;;;;;;;;;;;;;;;;;;5043830;28;19908;-76
2022/05/10 11:44:08;;;;;;;;;;;;;;;;;;5039167;28;19913;-77
2022/05/10 11:46:55;;;;;;;;;;;;;;;;;;5037495;28;19920;-80
2022/05/10 11:49:41;;;;;;;;;;;;;;;;;;5030373;28;19909;-77
2022/05/10 11:52:28;;;;;;;;;;;;;;;;;;5050993;28;19913;-75
2022/05/10 11:55:14;;;;;;;;;;;;;;;;;;5043493;28;19913;-76
2022/05/10 11:58:03;;;;;;;;;;;;;;;;;;5043139;28;19950;-76
2022/05/10 12:00:58;;;;;;;;;;;;;;;;;;5059621;28;19916;-76
2022/05/10 12:03:51;;;;;;;;;;;;;;;;;;5046949;28;19909;-75
2022/05/10 12:06:38;;;;;;;;;;;;;;;;;;5061761;28;19920;-75
2022/05/10 12:09:25;;;;;;;;;;;;;;;;;;5048226;28;19913;-76
2022/05/10 12:12:11;;;;;;;;;;;;;;;;;;5043005;28;19912;-75
2022/05/10 12:21:25;;;;;;;;;;;;;;;;;;5041998;28;19921;-78
2022/05/10 12:24:11;;;;;;;;;;;;;;;;;;5045548;28;19909;-77
2022/05/10 12:27:05;;;;;;;;;;;;;;;;;;5060899;28;20538;-77
2022/05/10 12:29:53;;;;;;;;;;;;;;;;;;5044276;28;19919;-75
2022/05/10 12:32:39;;;;;;;;;;;;;;;;;;5056014;28;19921;-78
2022/05/10 12:35:26;;;;;;;;;;;;;;;;;;5052486;28;19925;-75
2022/05/10 12:38:12;;;;;;;;;;;;;;;;;;5037655;28;19924;-77
2022/05/10 12:41:01;;;;;;;;;;;;;;;;;;5044954;28;19916;-77
2022/05/10 12:43:48;;;;;;;;;;;;;;;;;;5036916;28;19912;-77
2022/05/10 12:46:37;;;;;;;;;;;;;;;;;;5046904;28;19913;-77
2022/05/10 12:49:23;;;;;;;;;;;;;;;;;;5041019;28;20292;-76
2022/05/10 12:52:19;;;;;;;;;;;;;;;;;;5040868;28;19919;-77
2022/05/10 12:55:05;;;;;;;;;;;;;;;;;;5042118;28;20720;-76
2022/05/10 12:57:52;;;;;;;;;;;;;;;;;;5045445;28;19923;-76
2022/05/10 13:00:40;;;;;;;;;;;;;;;;;;5044696;28;19913;-77
2022/05/10 13:03:27;;;;;;;;;;;;;;;;;;5041520;28;19927;-77
2022/05/10 13:06:14;;;;;;;;;;;;;;;;;;5034757;28;19910;-77
2022/05/10 13:09:00;;;;;;;;;;;;;;;;;;5048032;28;19921;-78
2022/05/10 13:11:47;;;;;;;;;;;;;;;;;;5042278;28;19917;-75
2022/05/10 13:14:34;;;;;;;;;;;;;;;;;;5036389;28;19913;-76
2022/05/10 13:17:20;;;;;;;;;;;;;;;;;;5043119;28;19921;-76
2022/05/10 13:20:08;;;;;;;;;;;;;;;;;;5036065;28;19928;-76
2022/05/10 13:22:54;;;;;;;;;;;;;;;;;;5047206;28;20004;-76
2022/05/10 13:25:41;;;;;;;;;;;;;;;;;;5039399;28;19909;-75
2022/05/10 13:28:30;;;;;;;;;;;;;;;;;;5043612;28;19972;-76
2022/05/10 13:31:17;;;;;;;;;;;;;;;;;;5035555;28;19908;-77
2022/05/10 13:34:04;;;;;;;;;;;;;;;;;;5038649;28;19920;-77
2022/05/10 13:36:50;;;;;;;;;;;;;;;;;;5031215;28;20280;-74
2022/05/10 13:39:37;;;;;;;;;;;;;;;;;;5029674;28;19924;-77
2022/05/10 13:42:23;;;;;;;;;;;;;;;;;;5034342;28;19916;-76
2022/05/10 13:45:10;;;;;;;;;;;;;;;;;;5048052;28;19931;-77
2022/05/10 13:47:56;;;;;;;;;;;;;;;;;;5035530;28;20285;-77
2022/05/10 13:50:43;;;;;;;;;;;;;;;;;;5035202;28;19923;-76
2022/05/10 13:53:30;;;;;;;;;;;;;;;;;;5044069;28;19916;-76
2022/05/10 13:56:16;;;;;;;;;;;;;;;;;;5043199;28;20328;-77
2022/05/10 13:59:03;;;;;;;;;;;;;;;;;;5046775;28;19916;-77
2022/05/10 14:01:49;;;;;;;;;;;;;;;;;;5048850;28;19908;-77
2022/05/10 14:04:36;;;;;;;;;;;;;;;;;;5062762;28;19920;-77
2022/05/10 14:07:25;;;;;;;;;;;;;;;;;;5049749;28;20325;-76
2022/05/10 14:10:11;;;;;;;;;;;;;;;;;;5030055;28;19909;-76
2022/05/10 14:12:58;;;;;;;;;;;;;;;;;;5048980;28;19908;-76
2022/05/10 14:15:44;;;;;;;;;;;;;;;;;;5054312;28;19913;-76
2022/05/10 14:18:35;;;;;;;;;;;;;;;;;;5058375;28;19932;-76
2022/05/10 14:21:21;;;;;;;;;;;;;;;;;;5039654;28;20262;-76
2022/05/10 14:24:08;;;;;;;;;;;;;;;;;;5035882;28;19908;-76
2022/05/10 14:26:55;;;;;;;;;;;;;;;;;;5030323;28;20420;-76
2022/05/10 14:29:43;;;;;;;;;;;;;;;;;;5038636;28;19913;-75
2022/05/10 14:32:30;;;;;;;;;;;;;;;;;;5047812;28;20459;-76
2022/05/10 14:35:18;;;;;;;;;;;;;;;;;;5036431;28;20381;-77
2022/05/10 14:38:05;;;;;;;;;;;;;;;;;;5059855;28;19928;-77
2022/05/10 14:40:51;;;;;;;;;;;;;;;;;;5031121;28;19909;-77
2022/05/10 14:43:38;;;;;;;;;;;;;;;;;;5044023;28;19924;-77
2022/05/10 14:46:25;;;;;;;;;;;;;;;;;;5043064;28;20397;-77
2022/05/10 14:49:12;;;;;;;;;;;;;;;;;;5041880;28;19923;-79
2022/05/10 14:51:59;;;;;;;;;;;;;;;;;;5048724;28;19917;-80
2022/05/10 14:54:45;;;;;;;;;;;;;;;;;;5036477;28;19913;-80
2022/05/10 14:57:32;;;;;;;;;;;;;;;;;;5055643;28;19921;-80
2022/05/10 15:00:28;;;;;;;;;;;;;;;;;;5033705;28;19920;-80
2022/05/10 15:03:14;;;;;;;;;;;;;;;;;;5038525;28;19923;-80
2022/05/10 15:06:01;;;;;;;;;;;;;;;;;;5034353;28;19920;-79
2022/05/10 15:08:47;;;;;;;;;;;;;;;;;;5038648;28;19924;-80
2022/05/10 15:13:01;;;;;;;;;;;;;;;;;;5046014;28;19917;-80
2022/05/10 15:14:40;;;;;;;;;;;;;;;;;;5037863;28;19923;-80
2022/05/10 15:17:27;;;;;;;;;;;;;;;;;;5041522;28;19931;-78
2022/05/10 15:20:13;;;;;;;;;;;;;;;;;;5046442;28;19919;-79
2022/05/10 15:23:00;;;;;;;;;;;;;;;;;;5048464;28;20237;-79
2022/05/10 15:25:46;;;;;;;;;;;;;;;;;;5059160;28;19913;-79
2022/05/10 15:28:33;;;;;;;;;;;;;;;;;;5041298;28;19930;-79
2022/05/10 15:31:21;;;;;;;;;;;;;;;;;;5042935;28;20360;-79
2022/05/10 15:34:43;;;;;;;;;;;;;;;;;;5051994;28;19921;-79
2022/05/10 15:37:14;;;;;;;;;;;;;;;;;;5036632;28;20377;-79
2022/05/10 15:40:01;;;;;;;;;;;;;;;;;;5039399;28;20261;-80
2022/05/10 15:42:49;;;;;;;;;;;;;;;;;;5042062;28;19920;-79
2022/05/10 15:45:36;;;;;;;;;;;;;;;;;;5035176;28;20366;-79
2022/05/10 15:48:24;;;;;;;;;;;;;;;;;;5035921;28;19916;-78
2022/05/10 15:51:10;;;;;;;;;;;;;;;;;;5033970;28;20317;-78
2022/05/10 15:53:57;;;;;;;;;;;;;;;;;;5036471;28;19920;-79
2022/05/10 15:56:46;;;;;;;;;;;;;;;;;;5038285;28;19917;-78
2022/05/10 15:59:32;;;;;;;;;;;;;;;;;;5040005;28;19912;-78
2022/05/10 16:02:20;;;;;;;;;;;;;;;;;;5032147;28;20285;-79
2022/05/10 16:05:07;;;;;;;;;;;;;;;;;;5037228;28;19917;-78
2022/05/10 16:07:53;;;;;;;;;;;;;;;;;;5037799;28;19953;-78
2022/05/10 16:10:42;;;;;;;;;;;;;;;;;;5033594;28;19920;-79
2022/05/10 16:13:28;;;;;;;;;;;;;;;;;;5038049;28;19921;-80
2022/05/10 16:16:15;;;;;;;;;;;;;;;;;;5029622;28;20356;-78
2022/05/10 16:19:01;;;;;;;;;;;;;;;;;;5049375;28;19921;-79
2022/05/10 16:21:48;;;;;;;;;;;;;;;;;;5043355;28;19924;-77
2022/05/10 16:24:34;;;;;;;;;;;;;;;;;;5026545;28;20454;-78
2022/05/10 16:30:26;;;;;;;;;;;;;;;;;;5039856;28;19920;-78
2022/05/10 16:33:13;;;;;;;;;;;;;;;;;;5037307;28;19922;-79
2022/05/10 16:35:59;;;;;;;;;;;;;;;;;;5053153;28;19928;-79
2022/05/10 16:38:46;;;;;;;;;;;;;;;;;;5032658;28;19927;-78
2022/05/10 16:41:32;;;;;;;;;;;;;;;;;;5047873;28;19921;-78
2022/05/10 16:44:19;;;;;;;;;;;;;;;;;;5045801;28;19917;-78
2022/05/10 16:47:05;;;;;;;;;;;;;;;;;;5049567;28;19917;-78
2022/05/10 16:49:52;;;;;;;;;;;;;;;;;;5042682;28;19913;-78
2022/05/10 16:52:40;;;;;;;;;;;;;;;;;;5046790;28;19927;-80
2022/05/10 16:55:27;;;;;;;;;;;;;;;;;;5054228;28;19931;-80
2022/05/10 16:58:13;;;;;;;;;;;;;;;;;;5063561;28;19924;-80
2022/05/10 17:00:59;;;;;;;;;;;;;;;;;;5049567;28;20301;-78
2022/05/10 17:03:46;;;;;;;;;;;;;;;;;;5036421;28;19917;-78
2022/05/10 17:06:33;;;;;;;;;;;;;;;;;;5045084;28;19913;-79
2022/05/10 17:09:20;;;;;;;;;;;;;;;;;;5040376;28;19924;-81
2022/05/10 17:12:06;;;;;;;;;;;;;;;;;;5045663;28;19917;-79
2022/05/10 17:14:53;;;;;;;;;;;;;;;;;;5039163;28;19923;-79
2022/05/10 17:17:39;;;;;;;;;;;;;;;;;;5030055;28;19925;-79
2022/05/10 17:20:26;;;;;;;;;;;;;;;;;;5039842;28;19936;-78
2022/05/10 17:23:13;;;;;;;;;;;;;;;;;;5035257;28;19910;-79
2022/05/10 17:25:59;;;;;;;;;;;;;;;;;;5021014;28;19917;-79
2022/05/10 17:28:58;;;;;;;;;;;;;;;;;;5050152;28;19917;-77
2022/05/10 17:31:46;;;;;;;;;;;;;;;;;;5033276;28;19913;-78
2022/05/10 17:34:33;;;;;;;;;;;;;;;;;;5025461;28;19921;-78
2022/05/10 17:37:20;;;;;;;;;;;;;;;;;;5041621;28;19925;-79
2022/05/10 17:40:06;;;;;;;;;;;;;;;;;;5034531;28;19920;-79
2022/05/10 17:42:53;;;;;;;;;;;;;;;;;;5036642;28;19916;-81
2022/05/10 17:45:39;;;;;;;;;;;;;;;;;;5047865;28;19912;-79
2022/05/10 17:48:26;;;;;;;;;;;;;;;;;;5042772;28;20283;-79
2022/05/10 17:51:12;;;;;;;;;;;;;;;;;;5030551;28;19909;-80
2022/05/10 17:53:59;;;;;;;;;;;;;;;;;;5037709;28;19923;-80
2022/05/10 17:56:46;;;;;;;;;;;;;;;;;;5039366;28;19928;-79
2022/05/10 17:59:32;;;;;;;;;;;;;;;;;;5043816;28;20696;-78
2022/05/10 18:02:19;;;;;;;;;;;;;;;;;;5042857;28;19913;-78
2022/05/10 18:05:05;;;;;;;;;;;;;;;;;;5039367;28;20298;-77
2022/05/10 18:07:53;;;;;;;;;;;;;;;;;;5034577;28;19913;-78
2022/05/10 18:10:39;;;;;;;;;;;;;;;;;;5042921;28;19944;-78
2022/05/10 18:13:25;;;;;;;;;;;;;;;;;;5035947;28;19913;-75
2022/05/10 18:16:12;;;;;;;;;;;;;;;;;;5038399;28;20229;-78
2022/05/10 18:18:58;;;;;;;;;;;;;;;;;;5044317;28;19921;-77
2022/05/10 18:21:45;;;;;;;;;;;;;;;;;;5030777;28;19915;-77
2022/05/10 18:24:31;;;;;;;;;;;;;;;;;;5037189;28;19940;-76
2022/05/10 18:27:18;;;;;;;;;;;;;;;;;;5028199;28;19917;-77
2022/05/10 18:30:04;;;;;;;;;;;;;;;;;;5052264;28;19916;-78
2022/05/10 18:32:51;;;;;;;;;;;;;;;;;;5034221;28;21027;-78
2022/05/10 18:35:41;;;;;;;;;;;;;;;;;;5035220;28;19913;-78
2022/05/10 18:38:27;;;;;;;;;;;;;;;;;;5032999;28;19924;-78
2022/05/10 18:41:14;;;;;;;;;;;;;;;;;;5049865;28;19913;-77
2022/05/10 18:44:01;;;;;;;;;;;;;;;;;;5034287;28;19917;-77
2022/05/10 18:46:47;;;;;;;;;;;;;;;;;;5036074;28;19916;-78
2022/05/10 18:49:34;;;;;;;;;;;;;;;;;;5038585;28;19935;-77
2022/05/10 18:52:20;;;;;;;;;;;;;;;;;;5039748;28;19909;-77
2022/05/10 18:55:07;;;;;;;;;;;;;;;;;;5039573;28;19927;-77
2022/05/10 18:57:55;;;;;;;;;;;;;;;;;;5037684;28;19921;-80
2022/05/10 19:00:41;;;;;;;;;;;;;;;;;;5036818;28;20393;-78
2022/05/10 19:03:28;;;;;;;;;;;;;;;;;;5037668;28;19939;-77
2022/05/10 19:06:14;;;;;;;;;;;;;;;;;;5027774;28;20339;-78
2022/05/10 19:09:01;;;;;;;;;;;;;;;;;;5039659;28;19920;-77
2022/05/10 19:11:49;;;;;;;;;;;;;;;;;;5036321;28;19916;-77
2022/05/10 19:14:35;;;;;;;;;;;;;;;;;;5032739;28;19919;-78
2022/05/10 19:17:22;;;;;;;;;;;;;;;;;;5045935;28;19925;-77
2022/05/10 19:20:08;;;;;;;;;;;;;;;;;;5039006;28;19917;-77
2022/05/10 19:22:55;;;;;;;;;;;;;;;;;;5041181;28;19920;-77